Terminal Aerodrome Forecast
Issued by NWS

Home | Current Version | Previous Version | Text Only | Print | Product List | Glossary On
Versions: 1 2 3 4 5 6 7 8 9 10 11 12 13 14 15
000
FTUS45 KRIW 290700 AAA
TAFBPI
TAF AMD
KBPI 290713Z 2907/3006 VRB05KT 2SM BR SCT003
     FM291100 VRB05KT 4SM BR SCT003 BKN050
     FM291300 16007KT 3SM -SN SCT015 BKN025
     FM292100 15006KT 6SM -SN SCT018 BKN040
     FM300100 VRB05KT P6SM BKN060=

USA.gov is the U.S. government's official web portal to all federal, state and local government web resources and services.